Time;durP1;ratioP1;P1;durP2;ratioP2;P2;SDS_P1;SDS_P2;PMS_P1;PMS_P2;Temp;Humidity;BMP_temperature;BMP_pressure;BME280_temperature;BME280_humidity;BME280_pressure;Samples;Min_cycle;Max_cycle;Signal;HPM_P1;HPM_P2
2023/01/01 00:00:05;;;;;;;31.07;27.83;;;12.90;99.90;;;;;;5067887;28;20627;-67
2023/01/01 00:02:31;;;;;;;27.17;24.40;;;13.00;99.90;;;;;;5067959;28;20254;-68
2023/01/01 00:04:57;;;;;;;24.63;22.03;;;13.00;99.90;;;;;;5068006;28;20423;-71
2023/01/01 00:07:22;;;;;;;25.23;22.53;;;13.00;99.90;;;;;;5065005;28;20940;-68
2023/01/01 00:10:33;;;;;;;23.47;20.97;;;13.00;99.90;;;;;;5054532;28;20178;-68
2023/01/01 00:12:34;;;;;;;21.33;19.03;;;12.90;99.90;;;;;;5054040;28;20663;-67
2023/01/01 00:14:59;;;;;;;25.40;19.53;;;13.00;99.90;;;;;;5054653;28;20423;-68
2023/01/01 00:17:25;;;;;;;22.03;17.47;;;13.00;99.90;;;;;;5054467;28;20202;-68
2023/01/01 00:19:50;;;;;;;19.57;16.83;;;13.00;99.90;;;;;;5054295;28;20248;-68
2023/01/01 00:22:16;;;;;;;21.30;16.90;;;13.00;99.90;;;;;;5054495;28;20250;-67
2023/01/01 00:24:42;;;;;;;18.33;16.30;;;13.00;99.90;;;;;;5054485;28;20216;-69
2023/01/01 00:27:08;;;;;;;19.10;17.17;;;13.00;99.90;;;;;;5054657;28;20432;-68
2023/01/01 00:29:33;;;;;;;17.90;16.10;;;13.00;99.90;;;;;;5054154;28;20182;-67
2023/01/01 00:31:59;;;;;;;15.10;13.50;;;13.00;99.90;;;;;;5054288;28;20189;-68
2023/01/01 00:34:24;;;;;;;16.00;14.10;;;13.00;99.90;;;;;;5054294;28;20188;-68
2023/01/01 00:36:50;;;;;;;15.87;14.27;;;13.00;99.90;;;;;;5054246;28;20189;-69
2023/01/01 00:39:15;;;;;;;16.53;13.40;;;12.90;99.90;;;;;;5053836;28;20546;-67
2023/01/01 00:41:41;;;;;;;14.83;12.00;;;12.90;99.90;;;;;;5054194;28;20658;-68
2023/01/01 00:44:07;;;;;;;12.60;11.20;;;12.90;99.90;;;;;;5054184;28;20193;-68
2023/01/01 00:46:33;;;;;;;12.60;10.43;;;12.90;99.90;;;;;;5054151;28;20416;-69
2023/01/01 00:48:58;;;;;;;13.17;10.63;;;12.90;99.90;;;;;;5053673;28;20627;-68
2023/01/01 00:51:24;;;;;;;11.80;10.60;;;12.90;99.90;;;;;;5053995;28;20655;-68
2023/01/01 00:53:49;;;;;;;12.63;10.43;;;12.90;99.90;;;;;;5053866;28;20679;-69
2023/01/01 00:56:15;;;;;;;10.97;9.90;;;12.90;99.90;;;;;;5053940;28;20220;-68
2023/01/01 00:58:40;;;;;;;12.30;11.00;;;12.90;99.90;;;;;;5053686;28;20174;-68
2023/01/01 01:01:06;;;;;;;15.83;12.17;;;12.90;99.90;;;;;;5053807;28;20536;-68
2023/01/01 01:03:31;;;;;;;11.93;10.70;;;12.80;99.90;;;;;;5053593;28;20198;-68
2023/01/01 01:05:58;;;;;;;13.17;10.80;;;12.80;99.90;;;;;;5053837;28;20193;-68
2023/01/01 01:08:25;;;;;;;12.47;11.17;;;12.80;99.90;;;;;;5053277;28;20201;-67
2023/01/01 01:10:51;;;;;;;13.43;12.03;;;12.80;99.90;;;;;;5053575;28;20914;-69
2023/01/01 01:13:16;;;;;;;12.07;10.90;;;12.80;99.90;;;;;;5053486;28;20450;-68
2023/01/01 01:15:42;;;;;;;12.33;11.03;;;12.70;99.90;;;;;;5053488;28;20174;-67
2023/01/01 01:18:07;;;;;;;14.40;11.90;;;12.70;99.90;;;;;;5053369;28;20197;-68
2023/01/01 01:20:33;;;;;;;13.27;11.80;;;12.60;99.90;;;;;;5052281;28;20627;-67
2023/01/01 01:22:58;;;;;;;12.80;11.17;;;12.60;99.90;;;;;;5053288;28;20178;-67
2023/01/01 01:25:24;;;;;;;12.80;11.50;;;12.60;99.90;;;;;;5053322;28;20219;-69
2023/01/01 01:27:50;;;;;;;15.80;12.00;;;12.60;99.90;;;;;;5053288;28;20178;-68
2023/01/01 01:30:15;;;;;;;13.10;11.80;;;12.60;99.90;;;;;;5051695;28;20177;-68
2023/01/01 01:32:41;;;;;;;14.10;10.80;;;12.60;99.90;;;;;;5053058;28;20201;-68
2023/01/01 01:35:06;;;;;;;11.37;10.27;;;12.60;99.90;;;;;;5053226;28;20535;-68
2023/01/01 01:37:32;;;;;;;12.77;11.47;;;12.50;99.90;;;;;;5052979;28;20233;-68
2023/01/01 01:39:57;;;;;;;13.33;11.90;;;12.50;99.90;;;;;;5052709;28;20170;-68
2023/01/01 01:42:23;;;;;;;14.47;12.33;;;12.40;99.90;;;;;;5052954;28;20193;-71
2023/01/01 01:44:58;;;;;;;12.83;11.43;;;12.40;99.90;;;;;;5052985;28;20180;-68
2023/01/01 01:47:55;;;;;;;13.83;12.37;;;12.40;99.90;;;;;;5052866;28;20848;-68
2023/01/01 01:50:33;;;;;;;14.30;12.30;;;12.40;99.90;;;;;;5052918;28;20438;-69
2023/01/01 01:53:26;;;;;;;12.63;10.60;;;12.40;99.90;;;;;;5052582;28;20451;-68
2023/01/01 01:55:57;;;;;;;14.20;12.30;;;12.40;99.90;;;;;;5052595;28;20464;-68
2023/01/01 01:58:24;;;;;;;11.70;10.53;;;12.40;99.90;;;;;;5052415;28;20419;-69
2023/01/01 02:00:50;;;;;;;12.57;11.27;;;12.40;99.90;;;;;;5052646;28;20427;-66
2023/01/01 02:03:25;;;;;;;12.83;10.87;;;12.40;99.90;;;;;;5052591;28;20527;-67
2023/01/01 02:05:51;;;;;;;13.37;10.67;;;12.40;99.90;;;;;;5052714;28;20416;-68
2023/01/01 02:08:19;;;;;;;12.60;10.20;;;12.50;99.90;;;;;;5052270;28;20447;-68
2023/01/01 02:10:44;;;;;;;12.83;11.40;;;12.50;99.90;;;;;;5052419;28;20856;-67
2023/01/01 02:13:10;;;;;;;11.73;10.37;;;12.50;99.90;;;;;;5052293;28;20451;-67
2023/01/01 02:15:41;;;;;;;11.07;9.97;;;12.50;99.90;;;;;;5052208;28;20170;-68
2023/01/01 02:18:12;;;;;;;12.67;10.30;;;12.50;99.90;;;;;;5052364;28;20408;-68
2023/01/01 02:20:45;;;;;;;14.33;9.10;;;12.50;99.90;;;;;;5052466;28;20416;-69
2023/01/01 02:23:28;;;;;;;11.20;9.93;;;12.50;99.90;;;;;;5052301;28;20455;-68
2023/01/01 02:26:12;;;;;;;12.97;10.30;;;12.40;99.90;;;;;;5052290;28;20415;-69
2023/01/01 02:29:00;;;;;;;11.07;9.50;;;12.50;99.90;;;;;;5051921;28;20414;-68
2023/01/01 02:31:31;;;;;;;17.13;8.97;;;12.50;99.90;;;;;;5051941;28;20438;-69
2023/01/01 02:34:01;;;;;;;10.70;8.67;;;12.40;99.90;;;;;;5051985;28;20531;-69
2023/01/01 02:36:29;;;;;;;10.63;9.47;;;12.40;99.90;;;;;;5052001;28;20488;-68
2023/01/01 02:38:57;;;;;;;13.93;9.53;;;12.40;99.90;;;;;;5051687;28;20423;-68
2023/01/01 02:41:35;;;;;;;10.03;8.13;;;12.30;99.90;;;;;;5052011;28;20416;-68
2023/01/01 02:44:08;;;;;;;9.47;8.47;;;12.30;99.90;;;;;;5051932;28;20438;-68
2023/01/01 02:46:34;;;;;;;9.80;8.20;;;12.30;99.90;;;;;;5052013;28;20420;-68
2023/01/01 02:49:01;;;;;;;8.57;7.70;;;12.20;99.90;;;;;;5051566;28;20424;-67
2023/01/01 02:52:03;;;;;;;10.37;8.70;;;12.20;99.90;;;;;;5051989;28;20415;-68
2023/01/01 02:54:51;;;;;;;9.03;8.07;;;12.20;99.90;;;;;;5051852;28;20416;-68
2023/01/01 02:57:44;;;;;;;10.03;9.03;;;12.20;99.90;;;;;;5051720;28;20899;-69
2023/01/01 03:00:26;;;;;;;14.30;9.60;;;12.20;99.90;;;;;;5051678;28;20422;-68
2023/01/01 03:03:00;;;;;;;12.63;8.80;;;12.20;99.90;;;;;;5051702;28;20472;-67
2023/01/01 03:08:55;;;;;;;11.80;8.30;;;12.20;99.90;;;;;;5051495;28;20474;-68
2023/01/01 03:11:24;;;;;;;10.37;9.13;;;12.20;99.90;;;;;;5051775;28;20408;-68
2023/01/01 03:14:00;;;;;;;9.40;8.20;;;12.20;99.90;;;;;;5051659;28;20439;-68
2023/01/01 03:16:45;;;;;;;10.13;9.07;;;12.20;99.90;;;;;;5051623;28;20455;-68
2023/01/01 03:19:16;;;;;;;9.37;8.37;;;12.20;99.90;;;;;;5051437;28;20412;-68
2023/01/01 03:21:48;;;;;;;9.07;8.03;;;12.20;99.90;;;;;;5051621;28;20485;-68
2023/01/01 03:24:24;;;;;;;9.90;8.20;;;12.20;99.90;;;;;;5051678;28;20419;-68
2023/01/01 03:26:54;;;;;;;10.27;8.53;;;12.20;99.90;;;;;;5051682;28;20415;-68
2023/01/01 03:29:22;;;;;;;18.27;9.77;;;12.20;99.90;;;;;;5051280;28;20444;-68
2023/01/01 03:31:52;;;;;;;11.10;8.60;;;12.20;99.90;;;;;;5051622;28;20489;-68
2023/01/01 03:34:23;;;;;;;9.83;8.47;;;12.20;99.90;;;;;;5051571;28;20430;-68
2023/01/01 03:36:54;;;;;;;8.87;7.70;;;12.20;99.90;;;;;;5051467;28;20491;-71
2023/01/01 03:39:24;;;;;;;9.63;8.13;;;12.10;99.90;;;;;;5051273;28;20447;-67
2023/01/01 03:42:07;;;;;;;8.83;7.83;;;12.10;99.90;;;;;;5051432;28;20416;-68
2023/01/01 03:44:40;;;;;;;8.07;7.27;;;12.10;99.90;;;;;;5054894;28;20416;-68
2023/01/01 03:47:06;;;;;;;9.07;7.93;;;12.10;99.90;;;;;;5055272;28;20426;-68
2023/01/01 03:49:33;;;;;;;7.67;6.43;;;12.10;99.90;;;;;;5054938;28;20503;-66
2023/01/01 03:52:08;;;;;;;10.30;6.33;;;12.00;99.90;;;;;;5055115;28;20166;-68
2023/01/01 03:54:43;;;;;;;7.33;6.63;;;12.00;99.90;;;;;;5055113;28;20431;-69
2023/01/01 03:57:26;;;;;;;10.03;7.90;;;11.90;99.90;;;;;;5054723;28;20474;-67
2023/01/01 04:00:09;;;;;;;8.20;7.10;;;11.90;99.90;;;;;;5054736;28;20412;-68
2023/01/01 04:03:09;;;;;;;8.10;7.00;;;11.90;99.90;;;;;;5054915;28;20953;-67
2023/01/01 04:05:39;;;;;;;8.90;7.10;;;11.90;99.90;;;;;;5050923;28;20435;-68
2023/01/01 04:08:05;;;;;;;7.50;5.90;;;11.90;99.90;;;;;;5054960;28;20411;-66
2023/01/01 04:10:34;;;;;;;8.80;7.00;;;11.90;99.90;;;;;;5054510;28;20412;-67
2023/01/01 04:13:03;;;;;;;7.80;6.97;;;11.90;99.90;;;;;;5054610;28;20428;-67
2023/01/01 04:15:29;;;;;;;8.03;7.17;;;12.00;99.90;;;;;;5054784;28;20422;-68
2023/01/01 04:17:55;;;;;;;8.57;7.43;;;12.00;99.90;;;;;;5054467;28;20456;-68
2023/01/01 04:20:20;;;;;;;10.20;8.20;;;11.90;99.90;;;;;;5054393;28;20507;-68
2023/01/01 04:22:46;;;;;;;7.80;7.00;;;11.90;99.90;;;;;;5054431;28;20250;-67
2023/01/01 04:25:12;;;;;;;8.20;6.83;;;11.90;99.90;;;;;;5054410;28;20253;-68
2023/01/01 04:27:39;;;;;;;8.40;7.07;;;11.90;99.90;;;;;;5054503;28;20642;-68
2023/01/01 04:30:07;;;;;;;8.80;7.20;;;11.90;99.90;;;;;;5054170;28;20411;-69
2023/01/01 04:32:33;;;;;;;7.23;6.43;;;11.80;99.90;;;;;;5054245;28;20449;-68
2023/01/01 04:34:59;;;;;;;9.33;6.23;;;11.70;99.90;;;;;;5054432;28;20506;-69
2023/01/01 04:37:25;;;;;;;8.03;7.27;;;11.70;99.90;;;;;;5054236;28;20205;-68
2023/01/01 04:39:51;;;;;;;7.97;6.83;;;11.70;99.90;;;;;;5054338;28;20499;-69
2023/01/01 04:42:17;;;;;;;7.30;6.40;;;11.70;99.90;;;;;;5054703;28;20806;-69
2023/01/01 04:44:42;;;;;;;9.57;7.40;;;11.70;99.90;;;;;;5054343;28;20408;-68
2023/01/01 04:47:08;;;;;;;8.10;6.80;;;11.70;99.90;;;;;;5054088;28;20178;-68
2023/01/01 04:49:33;;;;;;;8.40;7.33;;;11.70;99.90;;;;;;5053940;28;20184;-68
2023/01/01 04:51:59;;;;;;;10.67;7.43;;;11.70;99.90;;;;;;5053479;28;20181;-68
2023/01/01 04:54:24;;;;;;;9.73;7.07;;;11.70;99.90;;;;;;5053837;28;20627;-68
2023/01/01 04:56:50;;;;;;;6.77;6.10;;;11.70;99.90;;;;;;5053672;28;20205;-68
2023/01/01 04:59:15;;;;;;;6.40;5.80;;;11.70;99.90;;;;;;5053526;28;20176;-68
2023/01/01 05:01:41;;;;;;;7.20;6.03;;;11.70;99.90;;;;;;5053930;28;20527;-68
2023/01/01 05:04:06;;;;;;;6.57;5.97;;;11.60;99.90;;;;;;5053785;28;20686;-67
2023/01/01 05:06:32;;;;;;;7.90;6.50;;;11.50;99.90;;;;;;5053783;28;20177;-67
2023/01/01 05:08:58;;;;;;;9.30;6.83;;;11.50;99.90;;;;;;5053913;28;20655;-68
2023/01/01 05:11:28;;;;;;;8.37;7.10;;;11.50;99.90;;;;;;5053637;28;20177;-67
2023/01/01 05:13:56;;;;;;;10.70;6.83;;;11.50;99.90;;;;;;5053495;28;20869;-68
2023/01/01 05:16:24;;;;;;;9.27;7.40;;;11.50;99.90;;;;;;5053667;28;20867;-67
2023/01/01 05:18:50;;;;;;;7.47;5.90;;;11.50;99.90;;;;;;5053275;28;20423;-67
2023/01/01 05:21:18;;;;;;;7.40;6.07;;;11.40;99.90;;;;;;5053543;28;20408;-67
2023/01/01 05:23:44;;;;;;;7.77;6.97;;;11.40;99.90;;;;;;5053418;28;20435;-68
2023/01/01 05:26:10;;;;;;;6.73;5.80;;;11.50;99.90;;;;;;5053392;28;20416;-68
2023/01/01 05:28:37;;;;;;;6.63;5.80;;;11.50;99.90;;;;;;5053023;28;20427;-67
2023/01/01 05:31:24;;;;;;;6.07;5.47;;;11.50;99.90;;;;;;5053280;28;20416;-68
2023/01/01 05:33:51;;;;;;;7.27;6.30;;;11.50;99.90;;;;;;5053127;28;20483;-67
2023/01/01 05:36:22;;;;;;;8.07;6.30;;;11.40;99.90;;;;;;5053104;28;20451;-67
2023/01/01 05:38:48;;;;;;;6.80;5.97;;;11.40;99.90;;;;;;5052799;28;20412;-68
2023/01/01 05:41:15;;;;;;;8.83;6.23;;;11.40;99.90;;;;;;5052973;28;20415;-68
2023/01/01 05:43:40;;;;;;;7.17;5.20;;;11.40;99.90;;;;;;5052940;28;20200;-68
2023/01/01 05:46:11;;;;;;;6.43;5.77;;;11.40;99.90;;;;;;5053122;28;20518;-67
2023/01/01 05:48:37;;;;;;;7.50;6.10;;;11.40;99.90;;;;;;5052694;28;20177;-67
2023/01/01 05:51:08;;;;;;;7.60;5.70;;;11.50;99.90;;;;;;5052391;28;20416;-67
2023/01/01 05:53:34;;;;;;;7.43;5.37;;;11.50;99.90;;;;;;5052676;28;20604;-67
2023/01/01 05:56:00;;;;;;;5.90;5.20;;;11.50;99.90;;;;;;5052549;28;21025;-67
2023/01/01 05:58:27;;;;;;;8.63;6.17;;;11.40;99.90;;;;;;5052317;28;20548;-68
2023/01/01 06:00:52;;;;;;;7.40;5.47;;;11.40;99.90;;;;;;5052761;28;20259;-67
2023/01/01 06:03:18;;;;;;;6.30;5.70;;;11.50;99.90;;;;;;5052561;28;20986;-67
2023/01/01 06:05:43;;;;;;;7.57;6.20;;;11.50;99.90;;;;;;5052084;28;20170;-67
2023/01/01 06:08:09;;;;;;;6.43;5.83;;;11.50;99.90;;;;;;5052533;28;20165;-67
2023/01/01 06:10:34;;;;;;;7.00;5.93;;;11.50;99.90;;;;;;5052424;28;20172;-67
2023/01/01 06:13:00;;;;;;;8.40;5.60;;;11.40;99.90;;;;;;5052413;28;20683;-67
2023/01/01 06:15:26;;;;;;;7.67;6.00;;;11.40;99.90;;;;;;5052418;28;20180;-68
2023/01/01 06:17:52;;;;;;;5.77;5.20;;;11.40;99.90;;;;;;5052313;28;20246;-68
2023/01/01 06:20:17;;;;;;;6.47;4.50;;;11.40;99.90;;;;;;5052047;28;20424;-67
2023/01/01 06:22:43;;;;;;;7.20;5.00;;;11.40;99.90;;;;;;5052441;28;20197;-68
2023/01/01 06:25:09;;;;;;;6.30;4.93;;;11.30;99.90;;;;;;5052233;28;20572;-67
2023/01/01 06:27:35;;;;;;;6.33;5.40;;;11.30;99.90;;;;;;5052339;28;20219;-67
2023/01/01 06:30:02;;;;;;;6.03;4.87;;;11.30;99.90;;;;;;5051886;28;20420;-68
2023/01/01 06:32:28;;;;;;;7.27;5.37;;;11.30;99.90;;;;;;5052107;28;20543;-67
2023/01/01 06:34:53;;;;;;;6.47;5.40;;;11.20;99.90;;;;;;5052105;28;20477;-70
2023/01/01 06:37:19;;;;;;;6.17;5.30;;;11.20;99.90;;;;;;5052093;28;20201;-67
2023/01/01 06:39:45;;;;;;;7.90;5.00;;;11.10;99.90;;;;;;5051799;28;20169;-70
2023/01/01 06:42:10;;;;;;;5.70;5.07;;;11.10;99.90;;;;;;5052070;28;20185;-70
2023/01/01 06:44:36;;;;;;;9.43;5.00;;;11.10;99.90;;;;;;5052108;28;20427;-67
2023/01/01 06:47:01;;;;;;;6.47;4.63;;;11.10;99.90;;;;;;5051993;28;20652;-67
2023/01/01 06:49:27;;;;;;;4.90;4.40;;;11.10;99.90;;;;;;5051629;28;20176;-67
2023/01/01 06:51:52;;;;;;;6.77;5.53;;;11.00;99.90;;;;;;5051852;28;20227;-67
2023/01/01 06:54:18;;;;;;;6.47;5.87;;;11.10;99.90;;;;;;5051904;28;20580;-68
2023/01/01 06:56:43;;;;;;;7.90;5.80;;;11.00;99.90;;;;;;5051822;28;20309;-67
2023/01/01 06:59:09;;;;;;;6.00;5.40;;;11.00;99.90;;;;;;5051643;28;20188;-67
2023/01/01 07:01:38;;;;;;;7.53;6.03;;;11.00;99.90;;;;;;5051901;28;20253;-68
2023/01/01 07:04:07;;;;;;;6.37;5.00;;;11.00;99.90;;;;;;5051726;28;20216;-67
2023/01/01 07:06:34;;;;;;;7.63;5.10;;;10.90;99.90;;;;;;5051799;28;20451;-68
2023/01/01 07:09:00;;;;;;;6.50;4.70;;;10.90;99.90;;;;;;5051447;28;20412;-67
2023/01/01 07:11:26;;;;;;;8.10;6.13;;;10.80;99.90;;;;;;5051714;28;20412;-68
2023/01/01 07:13:52;;;;;;;5.80;5.20;;;10.80;99.90;;;;;;5051695;28;20471;-67
2023/01/01 07:16:17;;;;;;;5.60;4.70;;;10.80;99.90;;;;;;5051626;28;20898;-68
2023/01/01 07:18:43;;;;;;;4.83;4.43;;;10.80;99.90;;;;;;5053810;28;20170;-67
2023/01/01 07:21:30;;;;;;;7.00;5.20;;;10.80;99.90;;;;;;5055877;28;20571;-67
2023/01/01 07:23:58;;;;;;;6.03;4.60;;;10.90;99.90;;;;;;5051618;28;20474;-68
2023/01/01 07:26:25;;;;;;;9.63;5.33;;;11.00;99.90;;;;;;5055654;28;20908;-67
2023/01/01 07:28:51;;;;;;;5.80;4.87;;;11.00;99.90;;;;;;5055259;28;20792;-68
2023/01/01 07:31:16;;;;;;;8.70;5.33;;;11.10;99.90;;;;;;5055537;28;20431;-68
2023/01/01 07:33:42;;;;;;;6.40;4.80;;;11.10;99.90;;;;;;5055438;28;20245;-67
2023/01/01 07:36:08;;;;;;;8.40;4.63;;;11.20;99.90;;;;;;5055405;28;20186;-67
2023/01/01 07:38:33;;;;;;;6.20;5.10;;;11.20;99.90;;;;;;5055196;28;20724;-67
2023/01/01 07:40:59;;;;;;;4.83;3.57;;;11.30;99.90;;;;;;5055355;28;20539;-67
2023/01/01 07:43:24;;;;;;;6.23;4.60;;;11.30;99.90;;;;;;5055262;28;20193;-68
2023/01/01 07:45:50;;;;;;;5.57;5.07;;;11.40;99.90;;;;;;5055257;28;20277;-68
2023/01/01 07:48:15;;;;;;;6.37;4.00;;;11.40;99.90;;;;;;5054929;28;20177;-68
2023/01/01 07:50:42;;;;;;;5.20;4.33;;;11.40;99.90;;;;;;5055167;28;20208;-68
2023/01/01 07:53:07;;;;;;;5.63;4.27;;;11.50;99.90;;;;;;5055051;28;20194;-67
2023/01/01 07:55:33;;;;;;;6.40;5.10;;;11.60;99.90;;;;;;5054924;28;20944;-67
2023/01/01 07:57:59;;;;;;;4.33;3.93;;;11.70;99.90;;;;;;5054887;28;20211;-68
2023/01/01 08:00:24;;;;;;;4.50;4.10;;;11.90;99.90;;;;;;5054991;28;20581;-67
2023/01/01 08:02:50;;;;;;;4.90;4.00;;;12.10;99.90;;;;;;5053719;28;20194;-67
2023/01/01 08:05:16;;;;;;;4.60;4.20;;;12.30;99.90;;;;;;5055026;28;20170;-67
2023/01/01 08:07:46;;;;;;;5.13;4.30;;;12.40;99.90;;;;;;5054869;28;20205;-68
2023/01/01 08:10:12;;;;;;;5.07;4.30;;;12.60;99.90;;;;;;5054557;28;20170;-68
2023/01/01 08:12:37;;;;;;;4.67;4.10;;;12.80;99.90;;;;;;5054667;28;20933;-67
2023/01/01 08:15:03;;;;;;;5.97;4.53;;;12.80;99.90;;;;;;5054943;28;20177;-67
2023/01/01 08:17:29;;;;;;;5.20;4.53;;;12.70;99.90;;;;;;5054725;28;20201;-68
2023/01/01 08:19:54;;;;;;;5.27;4.67;;;12.60;99.90;;;;;;5054419;28;20312;-67
2023/01/01 08:22:20;;;;;;;6.27;4.33;;;12.50;99.90;;;;;;5054490;28;20262;-67
2023/01/01 08:24:45;;;;;;;4.47;4.03;;;12.50;99.90;;;;;;5054543;28;20647;-68
2023/01/01 08:27:15;;;;;;;6.33;4.47;;;12.40;99.90;;;;;;5054509;28;20172;-67
2023/01/01 08:29:41;;;;;;;5.00;4.13;;;12.40;99.90;;;;;;5054008;28;20170;-70
2023/01/01 08:32:07;;;;;;;4.67;4.20;;;12.40;99.90;;;;;;5054693;28;20420;-70
2023/01/01 08:34:32;;;;;;;5.40;4.33;;;12.50;99.90;;;;;;5054438;28;20511;-68
2023/01/01 08:36:58;;;;;;;4.40;3.80;;;12.60;99.90;;;;;;5054189;28;20200;-67
2023/01/01 08:39:24;;;;;;;4.80;4.03;;;12.60;99.90;;;;;;5054008;28;20190;-68
2023/01/01 08:41:50;;;;;;;7.07;4.90;;;12.80;99.90;;;;;;5054117;28;20419;-68
2023/01/01 08:44:15;;;;;;;6.57;5.17;;;13.00;99.90;;;;;;5054224;28;20192;-68
2023/01/01 08:46:41;;;;;;;4.40;4.00;;;13.60;99.90;;;;;;5054137;28;20658;-68
2023/01/01 08:49:06;;;;;;;6.00;4.20;;;14.10;99.90;;;;;;5053854;28;20181;-68
2023/01/01 08:51:32;;;;;;;7.53;5.00;;;14.60;99.90;;;;;;5054008;28;20176;-68
2023/01/01 08:53:57;;;;;;;5.30;4.30;;;14.60;99.90;;;;;;5053974;28;20250;-68
2023/01/01 08:56:23;;;;;;;4.97;4.40;;;14.60;99.90;;;;;;5053749;28;20244;-68
2023/01/01 08:58:48;;;;;;;6.60;5.07;;;15.00;99.90;;;;;;5053741;28;20166;-68
2023/01/01 09:01:14;;;;;;;6.33;4.67;;;15.70;99.90;;;;;;5053977;28;20170;-68
2023/01/01 09:03:40;;;;;;;5.70;4.43;;;16.10;99.90;;;;;;5053805;28;20234;-68
2023/01/01 09:06:06;;;;;;;4.63;4.17;;;16.30;99.90;;;;;;5053769;28;20448;-68
2023/01/01 09:08:31;;;;;;;5.50;4.40;;;16.20;99.90;;;;;;5053444;28;20537;-68
2023/01/01 09:11:01;;;;;;;4.93;3.80;;;16.70;99.90;;;;;;5053598;28;20621;-69
2023/01/01 09:13:27;;;;;;;7.53;4.40;;;17.00;99.90;;;;;;5053612;28;20749;-68
2023/01/01 09:15:53;;;;;;;5.47;4.43;;;17.20;99.90;;;;;;5053569;28;20503;-68
2023/01/01 09:18:19;;;;;;;4.40;3.97;;;17.40;99.90;;;;;;5053249;28;20499;-68
2023/01/01 09:20:44;;;;;;;5.27;4.03;;;17.30;99.90;;;;;;5053463;28;20170;-68
2023/01/01 09:23:11;;;;;;;6.50;4.57;;;17.20;99.90;;;;;;5053374;28;20482;-68
2023/01/01 09:25:36;;;;;;;4.23;3.63;;;17.50;99.90;;;;;;5053410;28;20162;-68
2023/01/01 09:28:08;;;;;;;4.10;3.67;;;17.20;99.90;;;;;;5053631;28;20797;-68
2023/01/01 09:30:34;;;;;;;4.73;3.90;;;16.80;99.90;;;;;;5053119;28;20188;-68
2023/01/01 09:33:01;;;;;;;4.10;3.70;;;16.60;99.90;;;;;;5053158;28;20436;-68
2023/01/01 09:35:26;;;;;;;9.90;4.47;;;16.80;99.90;;;;;;5053090;28;20415;-68
2023/01/01 09:37:52;;;;;;;4.47;4.10;;;17.10;99.90;;;;;;5053042;28;20537;-68
2023/01/01 09:40:32;;;;;;;4.97;4.47;;;17.50;99.90;;;;;;5052043;28;20259;-68
2023/01/01 09:43:23;;;;;;;4.37;3.83;;;17.60;99.90;;;;;;5053096;28;20211;-68
2023/01/01 09:46:05;;;;;;;3.90;3.60;;;17.40;99.90;;;;;;5053033;28;20470;-68
2023/01/01 09:48:31;;;;;;;6.43;4.37;;;17.20;99.90;;;;;;5052681;28;20851;-68
2023/01/01 09:50:59;;;;;;;4.87;4.37;;;17.40;99.90;;;;;;5052347;28;20925;-68
2023/01/01 09:53:45;;;;;;;9.80;6.57;;;17.90;99.90;;;;;;5052905;28;20444;-68
2023/01/01 09:56:17;;;;;;;4.10;3.70;;;18.50;99.90;;;;;;5051396;28;20518;-69
2023/01/01 09:58:42;;;;;;;5.07;4.00;;;18.60;99.90;;;;;;5052617;28;20415;-68
2023/01/01 10:01:34;;;;;;;5.53;4.30;;;18.90;99.90;;;;;;5052816;28;20416;-68
2023/01/01 10:04:16;;;;;;;4.40;4.00;;;19.20;99.90;;;;;;5052616;28;20186;-69
2023/01/01 10:07:02;;;;;;;7.63;4.30;;;19.50;99.90;;;;;;5052714;28;20412;-68
2023/01/01 10:09:46;;;;;;;5.03;4.07;;;20.00;99.90;;;;;;5052285;28;20473;-68
2023/01/01 10:12:48;;;;;;;6.33;4.50;;;20.10;99.90;;;;;;5052481;28;20431;-68
2023/01/01 10:15:32;;;;;;;5.87;4.37;;;20.30;99.20;;;;;;5052602;28;20427;-68
2023/01/01 10:18:01;;;;;;;5.87;4.17;;;20.60;98.40;;;;;;5052286;28;20459;-68
2023/01/01 10:20:38;;;;;;;5.63;3.80;;;20.60;98.40;;;;;;5052136;28;20445;-69
2023/01/01 10:23:16;;;;;;;4.30;3.83;;;20.80;97.00;;;;;;5052357;28;20459;-68
2023/01/01 10:25:42;;;;;;;4.70;4.30;;;20.40;97.60;;;;;;5052357;28;20407;-68
2023/01/01 10:28:38;;;;;;;4.80;3.70;;;20.40;97.50;;;;;;5052313;28;20498;-68
2023/01/01 10:31:36;;;;;;;5.00;4.50;;;20.70;97.30;;;;;;5052259;28;20424;-68
2023/01/01 10:34:16;;;;;;;4.80;4.30;;;20.10;97.60;;;;;;5052234;28;20462;-68
2023/01/01 10:36:43;;;;;;;5.93;4.23;;;19.90;98.30;;;;;;5052103;28;20458;-68
2023/01/01 10:39:18;;;;;;;6.97;4.27;;;20.40;97.60;;;;;;5051877;28;20459;-68
2023/01/01 10:41:44;;;;;;;5.10;3.70;;;20.50;96.30;;;;;;5052319;28;20420;-68
2023/01/01 10:44:16;;;;;;;3.50;3.20;;;20.10;97.00;;;;;;5052040;28;20432;-68
2023/01/01 10:46:49;;;;;;;4.57;4.17;;;20.40;97.30;;;;;;5052137;28;20852;-69
2023/01/01 10:49:15;;;;;;;6.33;4.30;;;20.90;95.60;;;;;;5051630;28;20424;-68
2023/01/01 10:51:52;;;;;;;6.37;3.20;;;21.20;94.80;;;;;;5050036;28;20794;-68
2023/01/01 10:54:39;;;;;;;4.73;3.20;;;21.40;93.90;;;;;;5051949;28;20165;-68
2023/01/01 10:57:19;;;;;;;4.97;3.60;;;21.40;94.20;;;;;;5051703;28;20889;-69
2023/01/01 10:59:45;;;;;;;7.40;4.80;;;22.40;92.10;;;;;;5051575;28;20415;-68
2023/01/01 11:02:25;;;;;;;4.50;4.10;;;24.00;88.50;;;;;;5051780;28;20440;-68
2023/01/01 11:05:10;;;;;;;6.00;4.53;;;24.40;80.40;;;;;;5051861;28;20177;-68
2023/01/01 11:07:39;;;;;;;3.60;3.30;;;24.00;82.90;;;;;;5051863;28;20416;-68
2023/01/01 11:10:13;;;;;;;6.47;3.90;;;24.20;79.10;;;;;;5052047;28;20500;-69
2023/01/01 11:12:40;;;;;;;3.10;2.80;;;23.20;81.60;;;;;;5051783;28;20439;-69
2023/01/01 11:15:06;;;;;;;7.63;4.27;;;22.60;84.80;;;;;;5051758;28;20974;-69
2023/01/01 11:17:34;;;;;;;6.40;4.30;;;23.60;81.40;;;;;;5050274;28;20460;-69
2023/01/01 11:20:01;;;;;;;4.60;3.60;;;23.50;79.80;;;;;;5051398;28;20416;-69
2023/01/01 11:22:49;;;;;;;3.83;3.53;;;23.50;79.20;;;;;;5051936;28;20860;-69
2023/01/01 11:25:31;;;;;;;4.73;4.27;;;23.30;80.10;;;;;;5051648;28;20412;-67
2023/01/01 11:28:14;;;;;;;5.60;3.67;;;23.80;78.80;;;;;;5051658;28;20419;-69
2023/01/01 11:30:40;;;;;;;4.47;3.37;;;24.90;75.70;;;;;;5051628;28;20921;-69
2023/01/01 11:33:13;;;;;;;8.50;4.10;;;24.80;74.00;;;;;;5051425;28;20453;-69
2023/01/01 11:35:49;;;;;;;3.80;3.37;;;24.60;72.50;;;;;;5051662;28;20514;-69
2023/01/01 11:38:23;;;;;;;7.13;4.20;;;24.40;73.90;;;;;;5051194;28;20541;-69
2023/01/01 11:40:55;;;;;;;9.90;4.07;;;25.10;72.50;;;;;;5051451;28;20417;-69
2023/01/01 11:43:26;;;;;;;5.17;3.43;;;24.90;71.20;;;;;;5051387;28;20431;-69
2023/01/01 11:45:54;;;;;;;4.17;3.77;;;24.90;71.20;;;;;;5051495;28;20424;-70
2023/01/01 11:48:31;;;;;;;5.00;4.50;;;24.90;70.20;;;;;;5051214;28;20565;-69
2023/01/01 11:50:59;;;;;;;5.40;4.03;;;24.70;69.80;;;;;;5051464;28;20909;-69
2023/01/01 11:53:34;;;;;;;4.67;3.70;;;24.30;70.00;;;;;;5051239;28;20448;-68
2023/01/01 11:56:20;;;;;;;4.70;3.97;;;23.90;71.40;;;;;;5051149;28;20439;-69
2023/01/01 11:58:58;;;;;;;6.20;4.10;;;24.40;69.80;;;;;;5050999;28;20423;-69
2023/01/01 12:01:37;;;;;;;3.30;3.00;;;24.50;69.40;;;;;;5051277;28;20914;-69
2023/01/01 12:04:28;;;;;;;5.37;3.67;;;24.90;67.90;;;;;;5052287;28;20451;-69
2023/01/01 12:07:15;;;;;;;4.90;4.47;;;25.70;66.60;;;;;;5054572;28;20432;-68
2023/01/01 12:10:00;;;;;;;6.50;3.80;;;25.70;63.90;;;;;;5054555;28;20502;-70
2023/01/01 12:12:33;;;;;;;4.17;3.13;;;24.60;65.00;;;;;;5054788;28;20486;-69
2023/01/01 12:15:05;;;;;;;5.47;4.20;;;24.20;65.90;;;;;;5054860;28;20420;-69
2023/01/01 12:17:33;;;;;;;6.27;4.00;;;24.40;66.80;;;;;;5054690;28;20459;-69
2023/01/01 12:20:05;;;;;;;8.40;3.93;;;24.00;67.20;;;;;;5054318;28;20415;-69
2023/01/01 12:22:31;;;;;;;5.07;4.40;;;23.80;67.30;;;;;;5054635;28;20811;-69
2023/01/01 12:24:57;;;;;;;7.27;3.87;;;23.70;68.20;;;;;;5054568;28;20416;-69
2023/01/01 12:28:10;;;;;;;4.37;4.07;;;23.40;68.10;;;;;;5054582;28;20545;-69
2023/01/01 12:30:57;;;;;;;8.43;6.53;;;23.20;68.80;;;;;;5032182;28;20431;-69
2023/01/01 12:34:17;;;;;;;3.73;3.07;;;23.70;67.70;;;;;;5032206;28;20456;-69
2023/01/01 12:37:10;;;;;;;4.77;4.27;;;24.10;67.10;;;;;;5011358;28;20477;-68
2023/01/01 12:39:48;;;;;;;6.20;4.67;;;24.20;66.90;;;;;;5054072;28;20431;-69
2023/01/01 12:42:44;;;;;;;4.97;4.60;;;24.60;64.60;;;;;;5054166;28;20435;-69
2023/01/01 12:45:42;;;;;;;5.90;3.70;;;24.60;65.10;;;;;;5054234;28;20773;-68
2023/01/01 12:48:20;;;;;;;7.60;3.87;;;24.20;65.30;;;;;;5034896;28;20527;-68
2023/01/01 12:50:57;;;;;;;3.63;3.33;;;24.60;64.50;;;;;;5054197;28;20420;-69
2023/01/01 12:53:38;;;;;;;7.33;5.83;;;24.20;65.90;;;;;;5054003;28;20945;-68
2023/01/01 12:56:12;;;;;;;6.10;5.57;;;24.20;64.50;;;;;;5053717;28;20432;-69
2023/01/01 12:58:50;;;;;;;6.73;4.43;;;24.00;65.90;;;;;;5053704;28;20411;-69
2023/01/01 13:01:29;;;;;;;10.37;9.37;;;23.70;66.30;;;;;;5053816;28;20415;-69
2023/01/01 13:03:59;;;;;;;14.67;10.77;;;24.50;65.50;;;;;;5053773;28;20964;-69